Time;durP1;ratioP1;P1;durP2;ratioP2;P2;SDS_P1;SDS_P2;PMS_P1;PMS_P2;Temp;Humidity;BMP_temperature;BMP_pressure;BME280_temperature;BME280_humidity;BME280_pressure;Samples;Min_cycle;Max_cycle;Signal;HPM_P1;HPM_P2
2023/01/20 00:01:16;;;;;;;24.92;10.00;;;0.90;99.90;;;;;;5063389;28;20017;-74
2023/01/20 00:03:44;;;;;;;22.30;9.60;;;0.90;99.90;;;;;;5063110;28;20362;-74
2023/01/20 00:06:10;;;;;;;23.98;8.95;;;0.90;99.90;;;;;;5062889;28;20029;-74
2023/01/20 00:08:37;;;;;;;20.73;9.63;;;0.90;99.90;;;;;;5063658;28;20021;-74
2023/01/20 00:11:04;;;;;;;25.33;9.65;;;0.90;99.90;;;;;;5064296;28;20041;-74
2023/01/20 00:13:30;;;;;;;28.27;11.43;;;0.90;99.90;;;;;;5064209;28;20033;-73
2023/01/20 00:15:56;;;;;;;23.48;10.55;;;0.90;99.90;;;;;;5064508;28;20051;-75
2023/01/20 00:18:21;;;;;;;26.27;10.90;;;0.90;99.90;;;;;;5060996;28;20044;-73
2023/01/20 00:20:47;;;;;;;24.30;10.57;;;0.90;99.90;;;;;;5063235;28;20029;-74
2023/01/20 00:23:12;;;;;;;28.60;11.65;;;0.90;99.90;;;;;;5061271;28;20041;-74
2023/01/20 00:25:38;;;;;;;28.08;11.05;;;0.80;99.90;;;;;;5063544;28;20040;-75
2023/01/20 00:28:04;;;;;;;36.63;10.98;;;0.80;99.90;;;;;;5063340;28;20052;-75
2023/01/20 00:30:30;;;;;;;34.05;11.90;;;0.80;99.90;;;;;;5062210;28;20465;-75
2023/01/20 00:32:56;;;;;;;29.73;11.73;;;0.80;99.90;;;;;;5062527;28;20033;-74
2023/01/20 00:35:21;;;;;;;26.15;11.95;;;0.80;99.90;;;;;;5062796;28;20043;-73
2023/01/20 00:37:47;;;;;;;35.38;12.35;;;0.80;99.90;;;;;;5063509;28;20029;-74
2023/01/20 00:40:12;;;;;;;29.17;11.80;;;0.80;99.90;;;;;;5063428;28;20029;-73
2023/01/20 00:42:38;;;;;;;26.70;12.70;;;0.80;99.90;;;;;;5062023;28;20040;-73
2023/01/20 00:45:04;;;;;;;33.00;12.73;;;0.80;99.90;;;;;;5062254;28;20052;-75
2023/01/20 00:47:30;;;;;;;31.15;13.25;;;0.70;99.90;;;;;;5060707;28;20051;-76
2023/01/20 00:49:55;;;;;;;30.60;13.40;;;0.70;99.90;;;;;;5063777;28;20029;-74
2023/01/20 00:52:21;;;;;;;39.63;14.80;;;0.70;99.90;;;;;;5061883;28;20036;-72
2023/01/20 00:54:47;;;;;;;31.67;15.10;;;0.70;99.90;;;;;;5062914;28;20648;-73
2023/01/20 00:57:12;;;;;;;33.88;14.27;;;0.70;99.90;;;;;;5063154;28;20025;-72
2023/01/20 00:59:38;;;;;;;35.72;15.23;;;0.70;99.90;;;;;;5063185;28;20033;-73
2023/01/20 01:02:04;;;;;;;39.35;16.98;;;0.70;99.90;;;;;;5062099;28;20033;-74
2023/01/20 01:04:29;;;;;;;48.38;17.65;;;0.70;99.90;;;;;;5063146;28;20044;-75
2023/01/20 01:06:55;;;;;;;40.65;17.85;;;0.70;99.90;;;;;;5062679;28;20025;-74
2023/01/20 01:09:21;;;;;;;40.00;17.83;;;0.70;99.90;;;;;;5062703;28;20053;-72
2023/01/20 01:11:47;;;;;;;41.50;18.83;;;0.70;99.90;;;;;;5061033;28;20029;-73
2023/01/20 01:14:13;;;;;;;49.83;18.17;;;0.60;99.90;;;;;;5062957;28;20071;-73
2023/01/20 01:16:39;;;;;;;44.97;19.42;;;0.60;99.90;;;;;;5061653;28;20017;-75
2023/01/20 01:19:04;;;;;;;42.40;19.50;;;0.60;99.90;;;;;;5063207;28;20025;-74
2023/01/20 01:21:30;;;;;;;41.85;18.38;;;0.60;99.90;;;;;;5062729;28;20108;-74
2023/01/20 01:23:56;;;;;;;54.05;22.15;;;0.60;99.90;;;;;;5063109;28;20021;-74
2023/01/20 01:26:21;;;;;;;60.28;21.90;;;0.50;99.90;;;;;;5061556;28;20023;-74
2023/01/20 01:28:49;;;;;;;52.17;22.75;;;0.50;99.90;;;;;;5061385;28;20024;-73
2023/01/20 01:31:17;;;;;;;58.67;24.40;;;0.50;99.90;;;;;;5062064;28;20020;-73
2023/01/20 01:33:43;;;;;;;54.38;24.05;;;0.40;99.90;;;;;;5062152;28;20056;-73
2023/01/20 01:36:12;;;;;;;66.07;27.10;;;0.40;99.90;;;;;;5061397;28;20025;-72
2023/01/20 01:38:38;;;;;;;63.03;27.60;;;0.40;99.90;;;;;;5061010;28;20052;-73
2023/01/20 01:41:04;;;;;;;71.22;27.23;;;0.40;99.90;;;;;;5061334;28;20029;-73
2023/01/20 01:43:32;;;;;;;69.43;29.02;;;0.40;99.90;;;;;;5061272;28;20120;-74
2023/01/20 01:45:59;;;;;;;79.05;29.67;;;0.40;99.90;;;;;;5061668;28;20081;-72
2023/01/20 01:48:44;;;;;;;78.47;31.75;;;0.40;99.90;;;;;;5061095;28;20472;-75
2023/01/20 01:51:22;;;;;;;70.82;30.58;;;0.40;99.90;;;;;;5062583;28;20077;-73
2023/01/20 01:54:16;;;;;;;84.15;33.70;;;0.40;99.90;;;;;;5062257;28;20032;-74
2023/01/20 01:56:43;;;;;;;87.85;35.47;;;0.40;99.90;;;;;;5059051;28;20057;-73
2023/01/20 01:59:12;;;;;;;79.35;33.83;;;0.40;99.90;;;;;;5062096;28;20067;-74
2023/01/20 02:01:39;;;;;;;93.20;33.50;;;0.40;99.90;;;;;;5062013;28;20055;-74
2023/01/20 02:04:12;;;;;;;96.85;36.35;;;0.40;99.90;;;;;;5060679;28;20024;-74
2023/01/20 02:06:45;;;;;;;86.70;35.78;;;0.40;99.90;;;;;;5062156;28;20525;-73
2023/01/20 02:09:11;;;;;;;98.35;38.15;;;0.40;99.90;;;;;;5061795;28;20075;-75
2023/01/20 02:11:50;;;;;;;100.80;39.03;;;0.40;99.90;;;;;;5060655;28;20017;-73
2023/01/20 02:14:22;;;;;;;96.90;37.10;;;0.40;99.90;;;;;;5057674;28;20075;-73
2023/01/20 02:17:01;;;;;;;105.13;38.47;;;0.40;99.90;;;;;;5060078;28;20025;-75
2023/01/20 02:20:00;;;;;;;92.97;35.33;;;0.40;99.90;;;;;;5061556;28;20084;-76
2023/01/20 02:22:35;;;;;;;99.55;37.03;;;0.40;99.90;;;;;;5060472;28;20060;-73
2023/01/20 02:25:19;;;;;;;105.63;39.53;;;0.40;99.90;;;;;;5062019;28;20021;-74
2023/01/20 02:28:27;;;;;;;106.78;39.53;;;0.50;99.90;;;;;;5060174;28;20466;-73
2023/01/20 02:31:16;;;;;;;107.85;36.45;;;0.50;99.90;;;;;;5059947;28;20067;-71
2023/01/20 02:33:47;;;;;;;108.72;38.25;;;0.50;99.90;;;;;;5061805;28;20033;-71
2023/01/20 02:36:23;;;;;;;101.72;38.40;;;0.50;99.90;;;;;;5060238;28;20088;-73
2023/01/20 02:38:56;;;;;;;100.45;37.88;;;0.50;99.90;;;;;;5060069;28;20025;-75
2023/01/20 02:41:55;;;;;;;111.10;37.85;;;0.50;99.90;;;;;;5061713;28;20025;-71
2023/01/20 02:44:37;;;;;;;96.15;35.35;;;0.50;99.90;;;;;;5061379;28;20029;-73
2023/01/20 02:47:10;;;;;;;105.00;39.28;;;0.50;99.90;;;;;;5061488;28;20049;-76
2023/01/20 02:49:39;;;;;;;100.13;34.75;;;0.50;99.90;;;;;;5060146;28;20024;-76
2023/01/20 02:52:25;;;;;;;105.78;38.05;;;0.50;99.90;;;;;;5059983;28;20029;-75
2023/01/20 02:54:57;;;;;;;99.78;36.75;;;0.50;99.90;;;;;;5061019;28;20041;-71
2023/01/20 02:57:31;;;;;;;90.22;33.95;;;0.60;99.90;;;;;;5059729;28;20021;-72
2023/01/20 03:00:04;;;;;;;82.18;26.58;;;0.50;99.90;;;;;;5061216;28;21139;-71
2023/01/20 03:02:32;;;;;;;109.03;37.17;;;0.60;99.90;;;;;;5061296;28;20037;-74
2023/01/20 03:05:06;;;;;;;112.30;37.67;;;0.60;99.90;;;;;;5061338;28;20020;-75
2023/01/20 03:07:39;;;;;;;;;;;0.60;99.90;;;;;;5061425;28;20036;-75
2023/01/20 03:10:08;;;;;;;90.35;33.75;;;0.60;99.90;;;;;;5061045;28;19909;-71
2023/01/20 03:12:42;;;;;;;107.70;39.03;;;0.60;99.90;;;;;;5060014;28;20021;-72
2023/01/20 03:15:08;;;;;;;104.68;38.78;;;0.60;99.90;;;;;;5059761;28;20040;-73
2023/01/20 03:17:34;;;;;;;103.43;37.25;;;0.60;99.90;;;;;;5060028;28;20056;-75
2023/01/20 03:20:00;;;;;;;106.07;38.00;;;0.70;99.90;;;;;;5059845;28;20079;-72
2023/01/20 03:22:28;;;;;;;112.82;39.00;;;0.60;99.90;;;;;;5059863;28;20049;-73
2023/01/20 03:24:54;;;;;;;115.50;38.78;;;0.60;99.90;;;;;;5059804;28;20100;-73
2023/01/20 03:27:20;;;;;;;96.35;35.20;;;0.70;99.90;;;;;;5061104;28;20074;-71
2023/01/20 03:29:46;;;;;;;102.55;36.00;;;0.70;99.90;;;;;;5063609;28;20021;-73
2023/01/20 03:32:12;;;;;;;102.65;36.95;;;0.70;99.90;;;;;;5063490;28;20036;-72
2023/01/20 03:34:40;;;;;;;98.43;35.67;;;0.70;99.90;;;;;;5064430;28;20048;-71
2023/01/20 03:37:07;;;;;;;107.32;36.30;;;0.80;99.90;;;;;;5064485;28;20550;-73
2023/01/20 03:39:33;;;;;;;99.60;37.00;;;0.80;99.90;;;;;;5063346;28;20025;-75
2023/01/20 03:42:07;;;;;;;83.95;32.13;;;0.70;99.90;;;;;;5065202;28;20021;-74
2023/01/20 03:45:07;;;;;;;102.30;34.55;;;0.80;99.90;;;;;;5063454;28;20021;-72
2023/01/20 03:47:54;;;;;;;96.18;34.08;;;0.80;99.90;;;;;;5064483;28;20036;-72
2023/01/20 03:50:46;;;;;;;95.75;33.92;;;0.80;99.90;;;;;;5064369;28;20430;-74
2023/01/20 03:53:44;;;;;;;89.15;33.20;;;0.80;99.90;;;;;;5063274;28;20055;-74
2023/01/20 03:56:28;;;;;;;83.72;32.85;;;0.80;99.90;;;;;;5064482;28;20025;-74
2023/01/20 03:58:54;;;;;;;;;;;0.80;99.90;;;;;;5063644;28;20044;-74
2023/01/20 04:01:25;;;;;;;89.97;30.40;;;0.80;99.90;;;;;;5064436;28;19928;-72
2023/01/20 04:03:53;;;;;;;80.97;30.17;;;0.80;99.90;;;;;;5064348;28;20071;-73
2023/01/20 04:06:22;;;;;;;69.65;25.27;;;0.80;99.90;;;;;;5063787;28;20092;-73
2023/01/20 04:08:54;;;;;;;78.75;29.65;;;0.90;99.90;;;;;;5063604;28;20032;-73
2023/01/20 04:11:20;;;;;;;79.57;28.55;;;0.90;99.90;;;;;;5063760;28;20025;-75
2023/01/20 04:13:45;;;;;;;71.60;28.95;;;0.90;99.90;;;;;;5064357;28;20036;-71
2023/01/20 04:16:14;;;;;;;76.25;26.38;;;0.90;99.90;;;;;;5064290;28;20021;-72
2023/01/20 04:18:42;;;;;;;72.68;27.25;;;0.90;99.90;;;;;;5063560;28;20029;-73
2023/01/20 04:21:13;;;;;;;71.47;28.15;;;0.90;99.90;;;;;;5063713;28;20029;-73
2023/01/20 04:23:43;;;;;;;71.65;27.38;;;1.00;99.90;;;;;;5062448;28;20096;-73
2023/01/20 04:26:09;;;;;;;72.70;26.10;;;1.00;99.90;;;;;;5063803;28;20021;-72
2023/01/20 04:28:35;;;;;;;67.97;25.80;;;1.00;99.90;;;;;;5062804;28;20029;-73
2023/01/20 04:31:00;;;;;;;62.85;25.17;;;1.00;99.90;;;;;;5062511;28;20028;-73
2023/01/20 04:33:26;;;;;;;69.43;25.73;;;1.00;99.90;;;;;;5064196;28;20132;-73
2023/01/20 04:35:52;;;;;;;72.28;26.38;;;1.00;99.90;;;;;;5062535;28;20021;-74
2023/01/20 04:38:17;;;;;;;69.70;25.50;;;1.00;99.90;;;;;;5063823;28;20449;-74
2023/01/20 04:40:43;;;;;;;72.65;26.45;;;1.00;99.90;;;;;;5062516;28;20076;-74
2023/01/20 04:43:14;;;;;;;66.75;25.17;;;1.00;99.90;;;;;;5062460;28;20017;-74
2023/01/20 04:45:40;;;;;;;61.17;24.85;;;1.00;99.90;;;;;;5063709;28;20029;-74
2023/01/20 04:48:07;;;;;;;66.93;25.98;;;1.00;99.90;;;;;;5063689;28;20021;-75
2023/01/20 04:50:38;;;;;;;65.40;26.10;;;1.00;99.90;;;;;;5062276;28;20025;-73
2023/01/20 04:53:04;;;;;;;70.05;25.17;;;1.00;99.90;;;;;;5062378;28;20033;-74
2023/01/20 04:55:31;;;;;;;61.22;23.85;;;1.00;99.90;;;;;;5061930;28;20189;-74
2023/01/20 04:57:57;;;;;;;75.38;24.80;;;1.10;99.90;;;;;;5063249;28;20035;-74
2023/01/20 05:00:22;;;;;;;66.88;25.38;;;1.10;99.90;;;;;;5061888;28;20052;-74
2023/01/20 05:02:48;;;;;;;62.83;23.05;;;1.00;99.90;;;;;;5062176;28;20025;-72
2023/01/20 05:05:14;;;;;;;56.97;23.17;;;1.00;99.90;;;;;;5063371;28;20032;-76
2023/01/20 05:07:40;;;;;;;57.63;22.98;;;1.00;99.90;;;;;;5063283;28;20075;-74
2023/01/20 05:10:06;;;;;;;70.22;25.88;;;1.00;99.90;;;;;;5062920;28;20021;-72
2023/01/20 05:12:31;;;;;;;66.07;23.20;;;1.00;99.90;;;;;;5062015;28;20068;-75
2023/01/20 05:14:57;;;;;;;65.55;25.58;;;1.00;99.90;;;;;;5063106;28;20041;-75
2023/01/20 05:17:23;;;;;;;65.03;22.80;;;1.10;99.90;;;;;;5061894;28;20032;-71
2023/01/20 05:19:48;;;;;;;57.92;22.67;;;1.00;99.90;;;;;;5061574;28;20053;-73
2023/01/20 05:22:14;;;;;;;55.75;23.70;;;1.10;99.90;;;;;;5062908;28;20053;-74
2023/01/20 05:24:39;;;;;;;58.70;22.48;;;1.10;99.90;;;;;;5059934;28;20117;-72
2023/01/20 05:27:05;;;;;;;57.58;22.30;;;1.10;99.90;;;;;;5061513;28;20029;-74
2023/01/20 05:29:31;;;;;;;60.08;24.13;;;1.10;99.90;;;;;;5061448;28;20021;-73
2023/01/20 05:31:57;;;;;;;60.33;23.10;;;1.10;99.90;;;;;;5061561;28;20037;-71
2023/01/20 05:34:22;;;;;;;82.18;30.63;;;1.10;99.90;;;;;;5061383;28;20108;-72
2023/01/20 05:36:52;;;;;;;61.00;22.95;;;1.10;99.90;;;;;;5061211;28;20085;-73
2023/01/20 05:39:18;;;;;;;59.65;22.30;;;1.20;99.90;;;;;;5062136;28;20774;-73
2023/01/20 05:41:45;;;;;;;54.22;21.40;;;1.10;99.90;;;;;;5060947;28;20051;-72
2023/01/20 05:44:13;;;;;;;61.70;21.88;;;1.10;99.90;;;;;;5061344;28;20025;-71
2023/01/20 05:46:39;;;;;;;57.90;22.95;;;1.10;99.90;;;;;;5061666;28;20028;-75
2023/01/20 05:49:05;;;;;;;50.90;21.85;;;1.10;99.90;;;;;;5060296;28;20033;-72
2023/01/20 05:51:31;;;;;;;55.25;21.52;;;1.20;99.90;;;;;;5061023;28;20029;-73
2023/01/20 05:53:57;;;;;;;56.33;22.10;;;1.20;99.90;;;;;;5061298;28;20037;-73
2023/01/20 05:56:22;;;;;;;53.80;21.55;;;1.20;99.90;;;;;;5056295;28;20030;-70
2023/01/20 05:58:49;;;;;;;51.17;21.58;;;1.20;99.90;;;;;;5059022;28;20555;-73
2023/01/20 06:01:15;;;;;;;55.55;22.52;;;1.20;99.90;;;;;;5057059;28;20082;-71
2023/01/20 06:03:40;;;;;;;49.75;21.40;;;1.30;99.90;;;;;;5061502;28;20440;-73
2023/01/20 06:06:08;;;;;;;49.72;21.50;;;1.30;99.90;;;;;;5062030;28;20059;-73
2023/01/20 06:08:34;;;;;;;55.85;22.42;;;1.30;99.90;;;;;;5062027;28;20028;-72
2023/01/20 06:11:00;;;;;;;51.42;21.67;;;1.30;99.90;;;;;;5060876;28;20032;-73
2023/01/20 06:13:26;;;;;;;52.78;21.83;;;1.30;99.90;;;;;;5061092;28;20033;-72
2023/01/20 06:15:52;;;;;;;54.88;21.98;;;1.30;99.90;;;;;;5059068;28;20091;-72
2023/01/20 06:18:19;;;;;;;52.53;20.77;;;1.30;99.90;;;;;;5058140;28;20017;-73
2023/01/20 06:20:44;;;;;;;51.88;21.05;;;1.30;99.90;;;;;;5058646;28;20037;-72
2023/01/20 06:23:10;;;;;;;53.45;21.63;;;1.30;99.90;;;;;;5056520;28;20079;-73
2023/01/20 06:25:36;;;;;;;57.50;21.67;;;1.30;99.90;;;;;;5058707;28;20021;-71
2023/01/20 06:28:01;;;;;;;59.33;21.95;;;1.30;99.90;;;;;;5057427;28;20100;-72
2023/01/20 06:30:27;;;;;;;54.63;22.00;;;1.30;99.90;;;;;;5061338;28;20028;-71
2023/01/20 06:32:53;;;;;;;63.58;22.67;;;1.40;99.90;;;;;;5056587;28;20052;-71
2023/01/20 06:35:20;;;;;;;58.35;21.48;;;1.30;99.90;;;;;;5055929;28;20044;-72
2023/01/20 06:37:45;;;;;;;51.25;20.75;;;1.30;99.90;;;;;;5060368;28;20032;-73
2023/01/20 06:40:11;;;;;;;51.05;20.98;;;1.30;99.90;;;;;;5058518;28;20020;-72
2023/01/20 06:42:37;;;;;;;51.03;21.00;;;1.30;99.90;;;;;;5059210;28;20036;-73
2023/01/20 06:45:03;;;;;;;55.83;21.77;;;1.30;99.90;;;;;;5059236;28;20041;-72
2023/01/20 06:47:28;;;;;;;55.42;20.67;;;1.30;99.90;;;;;;5060159;28;20025;-74
2023/01/20 06:49:54;;;;;;;51.38;20.75;;;1.30;99.90;;;;;;5060502;28;20033;-71
2023/01/20 06:52:19;;;;;;;51.55;22.25;;;1.30;99.90;;;;;;5060238;28;20025;-72
2023/01/20 06:54:45;;;;;;;57.08;22.05;;;1.40;99.90;;;;;;5061339;28;20048;-72
2023/01/20 06:57:10;;;;;;;55.55;21.30;;;1.30;99.90;;;;;;5057484;28;20079;-73
2023/01/20 06:59:36;;;;;;;54.72;20.90;;;1.40;99.90;;;;;;5061478;28;20029;-73
2023/01/20 07:02:03;;;;;;;52.65;20.42;;;1.40;99.90;;;;;;5061254;28;20462;-73
2023/01/20 07:04:29;;;;;;;56.63;21.80;;;1.30;99.90;;;;;;5062616;28;20037;-74
2023/01/20 07:06:54;;;;;;;48.53;19.38;;;1.40;99.90;;;;;;5065165;28;20037;-73
2023/01/20 07:09:20;;;;;;;53.90;21.83;;;1.40;99.90;;;;;;5064470;28;20053;-73
2023/01/20 07:11:46;;;;;;;52.88;20.77;;;1.40;99.90;;;;;;5063876;28;20029;-71
2023/01/20 07:14:11;;;;;;;58.88;22.30;;;1.40;99.90;;;;;;5064106;28;20033;-73
2023/01/20 07:16:37;;;;;;;55.60;22.42;;;1.40;99.90;;;;;;5064145;28;20025;-74
2023/01/20 07:19:04;;;;;;;55.63;22.58;;;1.40;99.90;;;;;;5064069;28;21040;-72
2023/01/20 07:21:30;;;;;;;65.13;24.02;;;1.40;99.90;;;;;;5064856;28;20044;-74
2023/01/20 07:24:00;;;;;;;59.40;21.80;;;1.40;99.90;;;;;;5064262;28;20123;-73
2023/01/20 07:26:26;;;;;;;53.92;22.60;;;1.40;99.90;;;;;;5065009;28;20040;-72
2023/01/20 07:28:52;;;;;;;59.42;22.52;;;1.40;99.90;;;;;;5063599;28;20438;-73
2023/01/20 07:31:22;;;;;;;55.47;23.40;;;1.40;99.90;;;;;;5061695;28;20035;-74
2023/01/20 07:33:49;;;;;;;61.47;21.95;;;1.40;99.90;;;;;;5064139;28;20053;-72
2023/01/20 07:36:15;;;;;;;62.92;24.85;;;1.40;99.90;;;;;;5062931;28;20055;-71
2023/01/20 07:38:41;;;;;;;62.25;23.65;;;1.40;99.90;;;;;;5064595;28;20052;-71
2023/01/20 07:41:14;;;;;;;62.97;25.58;;;1.50;99.90;;;;;;5064916;28;20520;-72
2023/01/20 07:43:41;;;;;;;68.25;26.13;;;1.50;99.90;;;;;;5063660;28;20036;-71
2023/01/20 07:46:07;;;;;;;51.55;23.02;;;1.50;99.90;;;;;;5062342;28;20039;-72
2023/01/20 07:48:33;;;;;;;52.78;19.70;;;1.50;99.90;;;;;;5060120;28;20025;-72
2023/01/20 07:51:01;;;;;;;62.65;24.98;;;1.50;99.90;;;;;;5060985;28;20049;-75
2023/01/20 07:53:38;;;;;;;66.22;27.77;;;1.50;99.90;;;;;;5061060;28;20029;-73
2023/01/20 07:56:10;;;;;;;65.63;24.10;;;1.60;99.90;;;;;;5061011;28;20025;-71
2023/01/20 07:58:35;;;;;;;64.95;24.52;;;1.60;99.90;;;;;;5062946;28;20029;-72
2023/01/20 08:01:13;;;;;;;62.92;25.08;;;1.60;99.90;;;;;;5063548;28;20521;-71
2023/01/20 08:03:39;;;;;;;52.97;20.75;;;1.60;99.90;;;;;;5064448;28;20054;-72
2023/01/20 08:06:10;;;;;;;51.38;20.85;;;1.60;99.90;;;;;;5062750;28;20056;-71
2023/01/20 08:08:36;;;;;;;56.55;23.38;;;1.70;99.90;;;;;;5064328;28;20024;-74
2023/01/20 08:11:03;;;;;;;53.83;22.23;;;1.70;99.90;;;;;;5063037;28;20104;-72
2023/01/20 08:13:29;;;;;;;60.60;22.92;;;1.70;99.90;;;;;;5061386;28;20032;-71
2023/01/20 08:15:59;;;;;;;58.65;21.52;;;1.70;99.90;;;;;;5062672;28;20039;-72
2023/01/20 08:18:25;;;;;;;55.08;22.60;;;1.80;99.90;;;;;;5062479;28;20025;-72
2023/01/20 08:20:50;;;;;;;57.97;22.45;;;1.70;99.90;;;;;;5062459;28;20020;-71
2023/01/20 08:23:16;;;;;;;53.50;23.27;;;1.80;99.90;;;;;;5062725;28;20099;-71
2023/01/20 08:25:42;;;;;;;62.30;24.15;;;1.80;99.90;;;;;;5062700;28;20017;-73
2023/01/20 08:28:08;;;;;;;58.30;21.45;;;1.70;99.90;;;;;;5064178;28;20045;-71
2023/01/20 08:30:34;;;;;;;63.40;21.75;;;1.70;99.90;;;;;;5061362;28;20021;-71
2023/01/20 08:32:59;;;;;;;60.30;22.73;;;1.70;99.90;;;;;;5060288;28;20044;-73
2023/01/20 08:35:25;;;;;;;60.33;22.77;;;1.80;99.90;;;;;;5063779;28;20036;-72
2023/01/20 08:37:51;;;;;;;57.90;21.88;;;1.80;99.90;;;;;;5063467;28;20025;-69
2023/01/20 08:40:17;;;;;;;56.95;22.90;;;1.80;99.90;;;;;;5062573;28;20103;-70
2023/01/20 08:42:42;;;;;;;56.28;20.90;;;1.80;99.90;;;;;;5062417;28;20512;-70
2023/01/20 08:45:08;;;;;;;60.30;22.45;;;1.80;99.90;;;;;;5060909;28;20080;-70
2023/01/20 08:47:43;;;;;;;54.17;21.52;;;1.80;99.90;;;;;;5062807;28;20055;-72
2023/01/20 08:50:09;;;;;;;57.13;21.67;;;1.80;99.90;;;;;;5061650;28;20462;-71
2023/01/20 08:52:35;;;;;;;59.15;22.20;;;1.90;99.90;;;;;;5061324;28;20094;-71
2023/01/20 08:55:01;;;;;;;56.90;22.35;;;1.90;99.90;;;;;;5063634;28;20552;-72
2023/01/20 08:57:27;;;;;;;59.95;22.92;;;1.90;99.90;;;;;;5060110;28;20025;-70
2023/01/20 08:59:54;;;;;;;50.20;20.23;;;1.90;99.90;;;;;;5058627;28;20025;-72
2023/01/20 09:02:22;;;;;;;54.78;22.20;;;1.90;99.90;;;;;;5061094;28;20048;-72
2023/01/20 09:04:48;;;;;;;53.30;21.27;;;2.00;99.90;;;;;;5061380;28;20017;-71
2023/01/20 09:07:16;;;;;;;55.55;22.40;;;2.00;99.90;;;;;;5061571;28;20469;-72
2023/01/20 09:09:42;;;;;;;57.85;22.23;;;2.00;99.90;;;;;;5062099;28;20143;-72
2023/01/20 09:12:08;;;;;;;50.95;20.27;;;2.10;99.90;;;;;;5061292;28;20052;-72
2023/01/20 09:14:33;;;;;;;52.28;19.67;;;2.10;99.90;;;;;;5062444;28;20040;-72
2023/01/20 09:17:01;;;;;;;51.45;20.90;;;2.10;99.90;;;;;;5058626;28;20021;-72
2023/01/20 09:19:28;;;;;;;52.08;21.40;;;2.10;99.90;;;;;;5062152;28;20082;-72
2023/01/20 09:21:54;;;;;;;55.78;22.30;;;2.20;99.90;;;;;;5058669;28;20060;-71
2023/01/20 09:24:20;;;;;;;55.85;20.92;;;2.20;99.90;;;;;;5055579;28;20025;-71
2023/01/20 09:26:48;;;;;;;50.72;19.85;;;2.20;99.90;;;;;;5058940;28;20013;-71
2023/01/20 09:29:19;;;;;;;48.40;19.38;;;2.30;99.90;;;;;;5060677;28;20033;-72
2023/01/20 09:31:50;;;;;;;50.35;19.08;;;2.30;99.90;;;;;;5060447;28;20098;-72
2023/01/20 09:34:23;;;;;;;47.03;19.45;;;2.30;99.90;;;;;;5062029;28;20048;-71
2023/01/20 09:45:53;;;;;;;45.70;18.30;;;2.30;99.90;;;;;;5061321;28;20043;-72
2023/01/20 09:54:48;;;;;;;43.55;17.30;;;2.30;99.90;;;;;;5061766;28;20048;-71
2023/01/20 09:57:16;;;;;;;47.22;18.08;;;2.40;99.90;;;;;;5062115;28;20020;-70
2023/01/20 09:59:54;;;;;;;49.85;18.67;;;2.40;99.90;;;;;;5061251;28;20066;-71
2023/01/20 10:02:25;;;;;;;43.88;17.15;;;2.40;99.90;;;;;;5061932;28;20449;-69
2023/01/20 10:04:57;;;;;;;44.95;17.15;;;2.40;99.90;;;;;;5061662;28;20017;-70
2023/01/20 10:07:36;;;;;;;45.08;17.30;;;2.50;99.90;;;;;;5061730;28;20021;-70
2023/01/20 10:10:29;;;;;;;44.20;17.83;;;2.60;99.90;;;;;;5061132;28;20115;-72
2023/01/20 10:13:01;;;;;;;42.58;17.73;;;2.70;99.90;;;;;;5059584;28;20024;-73
2023/01/20 10:15:31;;;;;;;46.30;18.77;;;2.80;99.90;;;;;;5059370;28;20037;-71
2023/01/20 10:18:18;;;;;;;42.92;17.33;;;2.90;99.90;;;;;;5057753;28;20025;-73
2023/01/20 10:20:54;;;;;;;43.63;17.17;;;3.00;99.90;;;;;;5076001;28;20104;-72
2023/01/20 10:23:34;;;;;;;36.05;16.25;;;3.10;99.90;;;;;;5059573;28;20049;-71
2023/01/20 10:26:15;;;;;;;53.70;20.05;;;3.20;99.90;;;;;;5061157;28;20021;-72
2023/01/20 10:28:45;;;;;;;44.20;17.58;;;3.30;99.90;;;;;;5060897;28;20029;-72
2023/01/20 10:31:16;;;;;;;39.75;16.23;;;3.50;99.90;;;;;;5058650;28;20035;-72
2023/01/20 10:33:44;;;;;;;37.80;15.45;;;3.70;99.90;;;;;;5059128;28;20035;-72
2023/01/20 10:36:22;;;;;;;38.10;15.18;;;3.90;99.90;;;;;;5057686;28;20101;-73
2023/01/20 10:39:09;;;;;;;41.75;17.33;;;3.90;99.90;;;;;;5056559;28;20048;-71
2023/01/20 10:41:49;;;;;;;34.17;15.65;;;3.90;99.90;;;;;;5057231;28;20028;-73
2023/01/20 10:44:15;;;;;;;38.50;16.58;;;3.90;99.90;;;;;;5061169;28;20067;-72
2023/01/20 10:47:16;;;;;;;42.03;16.85;;;3.80;99.90;;;;;;5060743;28;20040;-72
2023/01/20 10:50:00;;;;;;;47.78;19.85;;;3.70;99.90;;;;;;5059553;28;20029;-72
2023/01/20 10:52:33;;;;;;;41.35;18.10;;;3.60;99.90;;;;;;5059220;28;20033;-74
2023/01/20 10:55:19;;;;;;;45.67;17.50;;;3.50;99.90;;;;;;5059929;28;20174;-72
2023/01/20 10:57:53;;;;;;;42.03;18.23;;;3.50;99.90;;;;;;5059649;28;20476;-73
2023/01/20 11:00:23;;;;;;;46.67;20.25;;;3.40;99.90;;;;;;5058960;28;20037;-73
2023/01/20 11:02:51;;;;;;;47.78;18.88;;;3.40;99.90;;;;;;5053459;28;20045;-73
2023/01/20 11:05:35;;;;;;;44.72;17.92;;;3.40;99.90;;;;;;5059300;28;20033;-74
2023/01/20 11:08:06;;;;;;;47.05;18.33;;;3.50;99.90;;;;;;5059650;28;20029;-74
2023/01/20 11:10:32;;;;;;;38.70;17.27;;;3.50;99.90;;;;;;5060097;28;20049;-73
2023/01/20 11:13:00;;;;;;;42.47;17.85;;;3.50;99.90;;;;;;5061719;28;20047;-73
2023/01/20 11:15:46;;;;;;;41.17;17.77;;;3.50;99.90;;;;;;5061216;28;20029;-74
2023/01/20 11:18:14;;;;;;;40.45;16.55;;;3.60;99.90;;;;;;5060634;28;20037;-73
2023/01/20 11:20:52;;;;;;;39.67;17.33;;;3.50;99.90;;;;;;5058889;28;20099;-74
2023/01/20 11:23:19;;;;;;;41.58;17.00;;;3.50;99.90;;;;;;5059325;28;20568;-71
2023/01/20 11:25:56;;;;;;;42.22;17.08;;;3.50;99.90;;;;;;5060171;28;20194;-72
2023/01/20 11:28:22;;;;;;;46.85;17.70;;;3.60;99.90;;;;;;5060799;28;20029;-72
2023/01/20 11:30:54;;;;;;;45.70;20.45;;;3.70;99.90;;;;;;5059354;28;20059;-73
2023/01/20 11:33:22;;;;;;;44.05;18.77;;;3.70;99.90;;;;;;5060571;28;20029;-72
2023/01/20 11:36:04;;;;;;;46.70;19.40;;;3.80;99.90;;;;;;5060080;28;20045;-72
2023/01/20 11:38:42;;;;;;;40.22;16.70;;;3.80;99.90;;;;;;5056063;28;20039;-73
2023/01/20 11:41:20;;;;;;;43.35;17.67;;;3.80;99.90;;;;;;5059038;28;20051;-72
2023/01/20 11:43:46;;;;;;;38.97;17.52;;;3.80;99.90;;;;;;5059596;28;20032;-72
2023/01/20 11:46:33;;;;;;;41.50;17.88;;;3.80;99.90;;;;;;5060413;28;20409;-73
2023/01/20 11:49:20;;;;;;;52.53;19.38;;;3.80;99.90;;;;;;5059798;28;20021;-73
2023/01/20 11:51:52;;;;;;;43.60;19.13;;;3.80;99.90;;;;;;5064505;28;20025;-72
2023/01/20 11:54:29;;;;;;;45.53;18.75;;;3.80;99.90;;;;;;5062777;28;20052;-71
2023/01/20 11:57:03;;;;;;;44.40;20.15;;;3.80;99.90;;;;;;5056666;28;21336;-71
2023/01/20 11:59:31;;;;;;;46.58;18.65;;;3.70;99.90;;;;;;5063799;28;20025;-72
2023/01/20 12:02:07;;;;;;;45.85;19.33;;;3.70;99.90;;;;;;5062546;28;20017;-72
2023/01/20 12:04:59;;;;;;;50.05;20.45;;;3.70;99.90;;;;;;5063753;28;20025;-72
2023/01/20 12:07:45;;;;;;;49.42;21.25;;;3.80;99.90;;;;;;5060879;28;20140;-72
2023/01/20 12:10:21;;;;;;;49.35;20.95;;;3.90;99.90;;;;;;5063385;28;20044;-72
2023/01/20 12:12:54;;;;;;;51.63;21.13;;;3.90;99.90;;;;;;5063567;28;20025;-72
2023/01/20 12:15:31;;;;;;;47.20;21.30;;;3.90;99.90;;;;;;5062341;28;20064;-72
2023/01/20 12:18:04;;;;;;;49.67;20.15;;;3.90;99.90;;;;;;5062675;28;20075;-73
2023/01/20 12:20:43;;;;;;;50.45;21.15;;;3.90;99.90;;;;;;5063676;28;20036;-72
2023/01/20 12:23:44;;;;;;;50.03;21.75;;;3.90;99.90;;;;;;5062755;28;20048;-72
2023/01/20 12:26:14;;;;;;;50.60;21.67;;;4.00;99.90;;;;;;5063163;28;20036;-73
2023/01/20 12:29:26;;;;;;;57.47;24.63;;;3.90;99.90;;;;;;5062362;28;20058;-73
2023/01/20 12:31:53;;;;;;;49.13;21.52;;;3.90;99.90;;;;;;5067620;28;20036;-74
2023/01/20 12:34:37;;;;;;;53.05;22.35;;;3.90;99.90;;;;;;5063243;28;20036;-72
2023/01/20 12:37:13;;;;;;;;;;;3.90;99.90;;;;;;5062308;28;21415;-73
2023/01/20 12:39:49;;;;;;;51.35;21.02;;;3.90;99.90;;;;;;5061499;28;19935;-72
2023/01/20 12:42:24;;;;;;;57.55;23.15;;;3.90;99.90;;;;;;5061643;28;20045;-72
2023/01/20 12:44:56;;;;;;;53.33;22.65;;;3.90;99.90;;;;;;5061269;28;20056;-72
2023/01/20 12:47:37;;;;;;;59.05;24.08;;;3.90;99.90;;;;;;5059575;28;20036;-73
2023/01/20 12:50:43;;;;;;;57.88;24.75;;;3.90;99.90;;;;;;5061687;28;20025;-72
2023/01/20 12:53:27;;;;;;;54.40;23.52;;;4.00;99.90;;;;;;5070587;28;20040;-71
2023/01/20 12:56:26;;;;;;;54.88;23.95;;;4.00;99.90;;;;;;5059806;28;20037;-72
2023/01/20 12:59:01;;;;;;;59.50;24.38;;;4.00;99.90;;;;;;5062810;28;20021;-73
2023/01/20 13:01:50;;;;;;;59.00;23.13;;;4.00;99.90;;;;;;5060307;28;20025;-73
2023/01/20 13:04:40;;;;;;;53.03;23.05;;;4.00;99.90;;;;;;5061370;28;21637;-73
2023/01/20 13:07:12;;;;;;;52.33;23.38;;;4.00;99.90;;;;;;5061549;28;20052;-72
2023/01/20 13:09:56;;;;;;;58.67;25.58;;;4.00;99.90;;;;;;5060912;28;20028;-73
2023/01/20 13:12:39;;;;;;;54.08;23.85;;;4.00;99.90;;;;;;5062544;28;20040;-72